Time;durP1;ratioP1;P1;durP2;ratioP2;P2;SDS_P1;SDS_P2;PMS_P1;PMS_P2;Temp;Humidity;BMP_temperature;BMP_pressure;BME280_temperature;BME280_humidity;BME280_pressure;Samples;Min_cycle;Max_cycle;Signal;HPM_P1;HPM_P2
2023/07/09 00:03:01;;;;;;;11.93;7.13;;;;;;;26.42;100.00;100858.78;21148177;27;20055;-81
2023/07/09 00:13:24;;;;;;;11.38;7.25;;;;;;;26.34;100.00;100863.69;21183241;27;20406;-81
2023/07/09 00:23:48;;;;;;;14.23;7.72;;;;;;;26.34;100.00;100866.41;21215627;27;20035;-81
2023/07/09 00:34:13;;;;;;;12.65;7.28;;;;;;;26.32;100.00;100871.88;21223436;27;20049;-81
2023/07/09 00:44:40;;;;;;;15.25;7.40;;;;;;;26.29;100.00;100874.75;21203567;27;20047;-81
2023/07/09 00:55:11;;;;;;;13.13;7.83;;;;;;;26.25;100.00;100880.41;21206963;27;20582;-81
2023/07/09 01:05:35;;;;;;;12.40;7.40;;;;;;;26.18;100.00;100872.53;21199630;27;20069;-81
2023/07/09 01:15:58;;;;;;;16.17;7.70;;;;;;;26.15;100.00;100864.53;21189450;27;20043;-81
2023/07/09 01:26:26;;;;;;;15.43;8.00;;;;;;;26.09;100.00;100874.78;21175563;27;20100;-82
2023/07/09 01:36:48;;;;;;;;;;;;;;;26.03;100.00;100864.25;21156754;27;20062;-81
2023/07/09 01:47:13;;;;;;;17.88;8.52;;;;;;;26.00;100.00;100870.66;21164279;27;19973;-81
2023/07/09 01:57:35;;;;;;;13.65;7.85;;;;;;;25.98;100.00;100887.94;21185937;27;20039;-81
2023/07/09 02:07:59;;;;;;;14.77;8.10;;;;;;;25.94;100.00;100902.53;21152760;27;20039;-81
2023/07/09 02:18:22;;;;;;;15.45;9.10;;;;;;;25.89;100.00;100910.00;21168369;27;20105;-82
2023/07/09 02:28:46;;;;;;;15.25;8.68;;;;;;;25.85;100.00;100903.84;21169479;27;20054;-82
2023/07/09 02:39:09;;;;;;;14.65;7.75;;;;;;;25.80;100.00;100898.63;21132574;28;20050;-81
2023/07/09 02:49:33;;;;;;;13.05;7.82;;;;;;;25.80;100.00;100905.88;21171003;28;20065;-80
2023/07/09 02:59:55;;;;;;;16.75;8.45;;;;;;;25.79;100.00;100910.44;21192884;27;20103;-81
2023/07/09 03:10:20;;;;;;;15.35;7.53;;;;;;;25.77;100.00;100911.44;21179105;27;20055;-81
2023/07/09 03:20:43;;;;;;;16.73;8.60;;;;;;;25.79;100.00;100931.19;21224536;27;20055;-80
2023/07/09 03:31:08;;;;;;;11.32;7.30;;;;;;;25.91;100.00;100938.75;21221900;27;20036;-81
2023/07/09 03:41:31;;;;;;;14.45;7.45;;;;;;;26.11;100.00;100938.72;21224982;27;20054;-81
2023/07/09 03:51:55;;;;;;;12.18;6.43;;;;;;;26.41;100.00;100951.81;21215731;27;20050;-84
2023/07/09 04:02:17;;;;;;;15.30;6.70;;;;;;;26.75;100.00;100957.38;21156269;27;20047;-84
2023/07/09 04:12:42;;;;;;;16.70;7.10;;;;;;;26.98;100.00;100986.97;21232443;27;20047;-80
2023/07/09 04:23:05;;;;;;;14.35;6.40;;;;;;;27.27;100.00;100993.69;21225920;27;20039;-82
2023/07/09 04:33:29;;;;;;;13.57;6.05;;;;;;;27.67;100.00;101013.41;21210692;27;20036;-82
2023/07/09 04:43:51;;;;;;;11.23;5.35;;;;;;;28.00;100.00;101006.22;21217070;27;20047;-82
2023/07/09 04:54:16;;;;;;;14.73;5.43;;;;;;;28.44;100.00;101005.69;21190516;27;20465;-82
2023/07/09 05:04:39;;;;;;;11.27;5.35;;;;;;;28.87;100.00;101009.69;21216353;27;20039;-83
2023/07/09 05:15:03;;;;;;;14.57;6.10;;;;;;;29.19;100.00;101011.44;21213886;27;20043;-83
2023/07/09 05:25:26;;;;;;;13.45;5.38;;;;;;;29.53;100.00;101024.00;21209905;27;20747;-82
2023/07/09 05:35:50;;;;;;;10.07;4.57;;;;;;;29.93;100.00;101025.22;21204775;27;20692;-82
2023/07/09 05:46:14;;;;;;;9.63;4.65;;;;;;;30.22;100.00;101052.53;21211570;27;20145;-82
2023/07/09 05:56:40;;;;;;;13.60;4.35;;;;;;;30.74;96.63;101051.03;21210530;27;20080;-82
2023/07/09 06:07:03;;;;;;;10.70;3.80;;;;;;;31.19;83.52;101051.81;21212962;27;20044;-81
2023/07/09 06:17:27;;;;;;;9.15;4.00;;;;;;;31.72;76.06;101052.84;21205566;27;20146;-83
2023/07/09 06:27:50;;;;;;;10.40;4.07;;;;;;;32.58;69.76;101075.97;21209154;27;20043;-81
2023/07/09 06:38:14;;;;;;;9.75;3.38;;;;;;;32.76;60.49;101075.56;21209651;27;20043;-81
2023/07/09 06:48:37;;;;;;;10.68;4.07;;;;;;;33.23;59.36;101074.00;21200935;27;20043;-81
2023/07/09 06:59:01;;;;;;;10.80;3.80;;;;;;;33.40;55.30;101070.00;21202823;27;20043;-80
2023/07/09 07:09:24;;;;;;;11.30;3.55;;;;;;;33.23;53.88;101066.66;21193734;27;20719;-82
2023/07/09 07:19:48;;;;;;;10.85;3.58;;;;;;;33.34;53.18;101084.16;21223778;27;20058;-82
2023/07/09 07:30:11;;;;;;;9.73;3.03;;;;;;;33.62;51.51;101078.34;21175171;28;20415;-80
2023/07/09 07:40:35;;;;;;;7.80;3.40;;;;;;;33.27;53.13;101097.44;21210858;28;20043;-80
2023/07/09 07:51:01;;;;;;;10.68;3.40;;;;;;;33.51;50.23;101097.44;21186896;27;20048;-82
2023/07/09 08:01:26;;;;;;;;;;;;;;;33.70;46.45;101105.16;21246234;27;20074;-80
2023/07/09 08:11:49;;;;;;;11.45;3.15;;;;;;;33.66;47.24;101107.28;21253981;27;19919;-81
2023/07/09 08:22:13;;;;;;;7.45;2.90;;;;;;;33.67;46.94;101103.53;21204976;27;20049;-78
2023/07/09 08:32:16;;;;;;;7.93;2.70;;;;;;;33.59;46.40;101105.97;21247635;27;20043;-80
2023/07/09 08:42:45;;;;;;;9.65;3.08;;;;;;;33.63;45.11;101119.31;21224633;27;20453;-79
2023/07/09 08:53:15;;;;;;;6.68;2.80;;;;;;;34.03;44.12;101124.53;21231884;27;20495;-82
2023/07/09 09:03:44;;;;;;;8.95;3.22;;;;;;;34.11;43.52;101115.75;21202143;27;20071;-82
2023/07/09 09:14:17;;;;;;;7.97;2.85;;;;;;;34.71;42.22;101121.97;21208009;27;20561;-82
2023/07/09 09:24:53;;;;;;;9.57;2.75;;;;;;;34.54;41.80;101114.16;21203340;27;20046;-82
2023/07/09 09:35:19;;;;;;;10.00;2.80;;;;;;;34.40;41.16;101126.22;21192953;27;20047;-82
2023/07/09 09:45:45;;;;;;;8.33;2.90;;;;;;;34.37;40.38;101134.69;21202207;27;20475;-81
2023/07/09 09:56:14;;;;;;;7.40;2.78;;;;;;;34.52;40.13;101123.50;21210061;27;20094;-79
2023/07/09 10:06:42;;;;;;;6.25;2.33;;;;;;;34.63;39.78;101116.19;21217291;27;20058;-79
2023/07/09 10:17:13;;;;;;;9.32;4.50;;;;;;;34.71;39.37;101127.47;21208189;27;20053;-81
2023/07/09 10:27:50;;;;;;;12.07;7.88;;;;;;;34.46;39.00;101140.47;21225471;27;20057;-81
2023/07/09 10:38:41;;;;;;;10.18;6.15;;;;;;;34.50;38.87;101128.25;21201090;27;20171;-80
2023/07/09 10:49:11;;;;;;;29.27;15.93;;;;;;;34.65;38.45;101135.28;21192023;27;20055;-82
2023/07/09 10:59:36;;;;;;;31.65;15.20;;;;;;;34.67;36.78;101134.13;21182612;27;20096;-78
2023/07/09 11:10:04;;;;;;;13.60;6.45;;;;;;;34.88;35.88;101138.94;21206132;27;20047;-79
2023/07/09 11:20:32;;;;;;;16.83;8.00;;;;;;;35.10;35.24;101130.72;21201867;27;20058;-79
2023/07/09 11:31:07;;;;;;;9.10;4.47;;;;;;;35.21;35.11;101128.00;21209263;27;20035;-75
2023/07/09 11:41:41;;;;;;;9.50;3.95;;;;;;;35.11;35.81;101105.91;21221115;27;20452;-76
2023/07/09 11:52:08;;;;;;;7.00;3.15;;;;;;;34.45;38.55;101123.13;21226328;27;20043;-76
2023/07/09 12:02:35;;;;;;;9.25;3.65;;;;;;;33.56;40.69;101117.16;21260065;27;20047;-76
2023/07/09 12:13:03;;;;;;;11.32;3.70;;;;;;;32.08;53.08;101099.50;21225797;27;20043;-75
2023/07/09 12:23:30;;;;;;;9.88;3.85;;;;;;;32.69;53.06;101103.50;21195782;27;20551;-74
2023/07/09 12:33:56;;;;;;;11.25;4.30;;;;;;;33.20;47.21;101082.44;21230232;27;20071;-74
2023/07/09 12:44:19;;;;;;;;;;;;;;;33.67;45.34;101075.28;21222385;27;20133;-74
2023/07/09 12:54:53;;;;;;;11.82;5.97;;;;;;;33.78;44.79;101086.31;21223454;27;19919;-75
2023/07/09 13:05:20;;;;;;;14.38;5.25;;;;;;;34.06;43.06;101072.25;21198319;27;20067;-75
2023/07/09 13:15:45;;;;;;;14.07;5.00;;;;;;;33.90;41.44;101064.31;21204059;27;20053;-75
2023/07/09 13:26:09;;;;;;;8.93;3.55;;;;;;;34.08;42.48;101063.88;21203303;27;20050;-76
2023/07/09 13:36:33;;;;;;;8.15;2.85;;;;;;;33.96;44.63;101028.22;21202526;27;20090;-76
2023/07/09 13:46:57;;;;;;;11.05;3.45;;;;;;;33.67;44.62;101021.38;21200990;27;20059;-75
2023/07/09 13:57:22;;;;;;;7.60;2.65;;;;;;;33.63;46.18;101004.28;21213951;27;20043;-75
2023/07/09 14:07:45;;;;;;;10.53;3.00;;;;;;;33.69;45.74;101013.00;21218787;27;20063;-76
2023/07/09 14:18:13;;;;;;;5.93;3.08;;;;;;;33.78;45.53;101001.38;21217116;27;20057;-75
2023/07/09 14:28:38;;;;;;;5.90;2.67;;;;;;;33.75;45.71;101007.09;21225712;27;20050;-76
2023/07/09 14:39:02;;;;;;;8.70;3.20;;;;;;;33.81;45.76;101012.97;21202178;27;20137;-75
2023/07/09 14:49:25;;;;;;;5.30;2.58;;;;;;;33.68;48.65;101000.28;21204007;28;20051;-76
2023/07/09 14:59:52;;;;;;;6.95;2.85;;;;;;;33.33;52.79;101023.06;21216145;27;20062;-76
2023/07/09 15:10:16;;;;;;;10.75;3.55;;;;;;;32.84;55.76;100987.47;21221679;27;20050;-76
2023/07/09 15:20:43;;;;;;;6.75;3.15;;;;;;;32.33;55.73;101008.50;21216433;27;20138;-76
2023/07/09 15:31:08;;;;;;;14.45;5.60;;;;;;;31.61;55.31;101015.34;21233108;27;20437;-75
2023/07/09 15:41:32;;;;;;;10.85;5.13;;;;;;;31.02;59.78;101003.78;21215578;27;20055;-75
2023/07/09 15:51:55;;;;;;;8.73;4.70;;;;;;;30.27;63.98;101001.34;21214612;27;20092;-75
2023/07/09 16:02:20;;;;;;;6.97;3.60;;;;;;;29.66;66.56;101025.03;21216919;27;20047;-75
2023/07/09 16:12:45;;;;;;;17.67;7.35;;;;;;;29.30;67.12;101014.41;21213919;27;20047;-75
2023/07/09 16:23:17;;;;;;;10.85;4.32;;;;;;;29.06;73.97;101018.53;21207567;27;20380;-75
2023/07/09 16:33:40;;;;;;;10.75;5.68;;;;;;;28.83;72.21;101027.09;21226900;27;20047;-75
2023/07/09 16:44:11;;;;;;;12.40;4.10;;;;;;;28.59;74.95;101048.34;21210607;27;20092;-74
2023/07/09 16:54:33;;;;;;;9.48;4.13;;;;;;;28.42;77.83;101057.41;21209534;27;20035;-75
2023/07/09 17:05:01;;;;;;;10.55;3.55;;;;;;;28.28;83.05;101051.84;21209872;27;20051;-75
2023/07/09 17:15:26;;;;;;;12.82;5.70;;;;;;;28.09;84.44;101043.72;21206507;27;20043;-75
2023/07/09 17:25:51;;;;;;;14.23;6.75;;;;;;;27.89;89.64;101057.50;21178201;27;20039;-74
2023/07/09 17:36:15;;;;;;;12.07;4.63;;;;;;;27.68;97.61;101064.00;21174959;27;20051;-74
2023/07/09 17:46:39;;;;;;;10.02;4.18;;;;;;;27.51;100.00;101061.22;21187855;27;20071;-74
2023/07/09 17:57:02;;;;;;;9.45;4.43;;;;;;;27.37;100.00;101061.94;21210924;27;20044;-74
2023/07/09 18:07:30;;;;;;;11.07;4.13;;;;;;;27.23;100.00;101068.03;21207763;27;20579;-74
2023/07/09 18:17:54;;;;;;;10.45;4.93;;;;;;;27.09;100.00;101081.34;21206657;27;20055;-75
2023/07/09 18:28:23;;;;;;;11.13;4.40;;;;;;;27.00;100.00;101089.03;21205802;27;20115;-74
2023/07/09 18:38:45;;;;;;;14.68;4.70;;;;;;;26.81;100.00;101091.69;21189827;27;20059;-74
2023/07/09 18:49:10;;;;;;;11.27;4.57;;;;;;;26.74;100.00;101115.47;21208066;27;20047;-74
2023/07/09 18:59:34;;;;;;;9.50;3.92;;;;;;;26.62;100.00;101112.44;21196381;27;20039;-74
2023/07/09 19:09:59;;;;;;;8.52;3.75;;;;;;;26.54;100.00;101121.78;21215898;27;20047;-74
2023/07/09 19:20:24;;;;;;;7.40;3.30;;;;;;;26.46;100.00;101123.06;21191183;27;20050;-73
2023/07/09 19:30:51;;;;;;;8.35;3.63;;;;;;;26.38;100.00;101128.84;21192091;27;20126;-73
2023/07/09 19:41:15;;;;;;;11.27;4.28;;;;;;;26.34;100.00;101129.03;21172462;27;20055;-72
2023/07/09 19:51:40;;;;;;;13.77;4.80;;;;;;;26.27;100.00;101128.41;21214431;27;20034;-74
2023/07/09 20:02:02;;;;;;;15.90;6.05;;;;;;;26.19;100.00;101114.28;21217059;27;20058;-74
2023/07/09 20:12:26;;;;;;;14.93;5.10;;;;;;;26.13;100.00;101107.34;21215687;27;20414;-74
2023/07/09 20:22:50;;;;;;;10.05;5.10;;;;;;;26.08;100.00;101106.66;21227514;27;20521;-74
2023/07/09 20:33:16;;;;;;;12.35;3.72;;;;;;;25.99;100.00;101103.47;21256309;27;20134;-75
2023/07/09 20:43:40;;;;;;;12.15;4.80;;;;;;;25.93;100.00;101082.09;21143448;27;20043;-75
2023/07/09 20:54:04;;;;;;;13.80;5.25;;;;;;;25.92;100.00;101097.44;21225929;27;20384;-75
2023/07/09 21:04:27;;;;;;;9.63;4.65;;;;;;;25.85;100.00;101087.84;21206615;27;20043;-75
2023/07/09 21:14:52;;;;;;;18.70;6.38;;;;;;;25.85;100.00;101084.25;21207900;27;20043;-74
2023/07/09 21:25:21;;;;;;;9.80;3.85;;;;;;;25.76;100.00;101070.16;21223012;27;20051;-75
2023/07/09 21:35:46;;;;;;;10.43;4.25;;;;;;;25.74;100.00;101065.75;21144203;27;20047;-74
2023/07/09 21:46:23;;;;;;;9.48;4.13;;;;;;;25.72;100.00;101075.75;21221008;27;20043;-75
2023/07/09 21:56:47;;;;;;;10.38;4.18;;;;;;;25.64;100.00;101061.69;21221297;27;20379;-75
2023/07/09 22:07:15;;;;;;;11.00;3.65;;;;;;;25.60;100.00;101043.81;21218175;27;20046;-74
2023/07/09 22:17:39;;;;;;;11.57;3.90;;;;;;;25.56;100.00;101045.72;21205858;27;20096;-75
2023/07/09 22:28:02;;;;;;;8.60;3.58;;;;;;;25.54;100.00;101041.31;21191880;27;20046;-75
2023/07/09 22:38:26;;;;;;;9.13;3.53;;;;;;;25.50;100.00;101037.00;21191456;27;20074;-75
2023/07/09 22:48:52;;;;;;;13.95;4.47;;;;;;;25.43;100.00;101039.06;21232294;27;20047;-75
2023/07/09 22:59:16;;;;;;;16.50;4.40;;;;;;;25.41;100.00;101027.44;21198065;27;20123;-74
2023/07/09 23:09:39;;;;;;;8.10;3.70;;;;;;;25.38;100.00;101030.28;21200271;27;20124;-74
2023/07/09 23:20:06;;;;;;;12.00;3.97;;;;;;;25.37;100.00;101021.28;21226641;27;20510;-75
2023/07/09 23:30:32;;;;;;;10.70;4.27;;;;;;;25.32;100.00;101036.81;21234578;27;20066;-75
2023/07/09 23:40:59;;;;;;;13.07;4.75;;;;;;;25.29;100.00;101015.31;21224398;27;20047;-75
2023/07/09 23:51:22;;;;;;;10.27;3.40;;;;;;;25.25;100.00;101005.56;21195618;27;20058;-75
